Time;durP1;ratioP1;P1;durP2;ratioP2;P2;SDS_P1;SDS_P2;PMS_P1;PMS_P2;Temp;Humidity;BMP_temperature;BMP_pressure;BME280_temperature;BME280_humidity;BME280_pressure;Samples;Min_cycle;Max_cycle;Signal;HPM_P1;HPM_P2
2023/04/14 00:01:00;;;;;;;3.47;1.93;;;7.90;99.90;7.80;99751.00;;;;5006728;27;96240;-65
2023/04/14 00:03:25;;;;;;;2.10;1.90;;;7.90;99.90;7.80;99757.00;;;;5005700;27;118324;-65
2023/04/14 00:05:51;;;;;;;10.57;2.40;;;7.90;99.90;7.80;99758.00;;;;5007854;27;88824;-66
2023/04/14 00:08:17;;;;;;;3.97;3.20;;;7.90;99.90;7.80;99758.00;;;;5008120;27;89101;-65
2023/04/14 00:10:42;;;;;;;4.10;2.40;;;7.90;99.90;7.80;99753.00;;;;5006778;27;111346;-65
2023/04/14 00:13:08;;;;;;;4.00;2.70;;;7.90;99.90;7.80;99754.00;;;;5008554;27;118527;-65
2023/04/14 00:15:34;;;;;;;2.60;2.17;;;7.90;99.90;7.80;99751.00;;;;5009856;27;118311;-65
2023/04/14 00:17:59;;;;;;;4.53;2.40;;;7.90;99.90;7.80;99747.00;;;;5008961;27;87966;-65
2023/04/14 00:20:25;;;;;;;3.00;2.70;;;7.90;99.90;7.80;99738.00;;;;5004657;27;109247;-65
2023/04/14 00:22:51;;;;;;;3.40;2.87;;;8.00;99.90;7.90;99736.00;;;;5007496;27;116438;-65
2023/04/14 00:25:16;;;;;;;3.93;2.00;;;7.90;99.90;7.90;99732.00;;;;5006144;27;118505;-65
2023/04/14 00:27:42;;;;;;;3.47;2.43;;;8.00;99.90;7.80;99733.00;;;;5007541;27;87913;-65
2023/04/14 00:30:08;;;;;;;4.43;2.37;;;7.90;99.90;7.80;99729.00;;;;5007302;27;100659;-65
2023/04/14 00:32:34;;;;;;;2.63;2.43;;;7.90;99.90;7.80;99718.00;;;;5010524;27;89147;-65
2023/04/14 00:35:02;;;;;;;2.70;2.13;;;8.40;99.90;7.80;99721.00;;;;5005770;27;88843;-65
2023/04/14 00:37:28;;;;;;;6.73;3.10;;;7.90;99.90;7.80;99738.00;;;;5007487;27;88888;-66
2023/04/14 00:39:54;;;;;;;2.93;2.63;;;7.90;99.90;7.80;99733.00;;;;5009397;27;87719;-65
2023/04/14 00:42:20;;;;;;;5.63;2.37;;;7.80;99.90;7.80;99740.00;;;;5010470;27;116544;-65
2023/04/14 00:44:47;;;;;;;1.73;1.50;;;7.80;99.90;7.70;99738.00;;;;5012179;27;87776;-65
2023/04/14 00:47:12;;;;;;;3.37;1.30;;;7.80;99.90;7.70;99744.00;;;;5007851;27;87612;-66
2023/04/14 00:49:38;;;;;;;5.40;2.43;;;7.80;99.90;7.70;99744.00;;;;5007181;27;108749;-66
2023/04/14 00:52:05;;;;;;;2.67;1.73;;;7.80;99.90;7.70;99746.00;;;;4987048;27;117075;-66
2023/04/14 00:54:32;;;;;;;3.33;1.97;;;7.80;99.90;7.70;99745.00;;;;5011693;27;88262;-65
2023/04/14 00:56:58;;;;;;;2.83;2.27;;;7.80;99.90;7.60;99745.00;;;;5013274;27;88086;-66
2023/04/14 00:59:24;;;;;;;4.00;2.50;;;7.70;99.90;7.60;99750.00;;;;5011391;27;108907;-65
2023/04/14 01:01:50;;;;;;;3.37;2.63;;;8.00;99.90;7.60;99744.00;;;;5022481;27;88899;-66
2023/04/14 01:04:17;;;;;;;2.87;2.60;;;7.70;99.90;7.60;99739.00;;;;5007498;27;88658;-65
2023/04/14 01:06:42;;;;;;;5.73;2.47;;;7.70;99.90;7.60;99743.00;;;;5008261;27;110381;-65
2023/04/14 01:09:08;;;;;;;5.83;2.87;;;7.70;99.90;7.60;99745.00;;;;5004435;27;108372;-66
2023/04/14 01:12:20;;;;;;;2.10;1.90;;;7.70;99.90;7.60;99753.00;;;;5026216;27;116286;-67
2023/04/14 01:14:59;;;;;;;4.47;2.67;;;7.70;99.90;7.60;99744.00;;;;4981842;27;89116;-65
2023/04/14 01:17:39;;;;;;;3.17;2.57;;;7.70;99.90;7.60;99742.00;;;;5023874;27;88286;-66
2023/04/14 01:20:27;;;;;;;3.03;2.30;;;7.70;99.90;7.60;99752.00;;;;5025274;27;93582;-66
2023/04/14 01:23:02;;;;;;;2.53;2.23;;;7.70;99.90;7.60;99745.00;;;;5010926;27;110372;-66
2023/04/14 01:25:36;;;;;;;3.67;1.90;;;7.70;99.90;7.60;99755.00;;;;5007456;27;105858;-65
2023/04/14 01:28:59;;;;;;;4.23;2.40;;;7.70;99.90;7.50;99745.00;;;;5008064;27;89531;-66
2023/04/14 01:31:46;;;;;;;2.73;2.47;;;7.60;99.90;7.50;99741.00;;;;5004801;27;87907;-65
2023/04/14 01:34:24;;;;;;;3.43;2.77;;;7.60;99.90;7.50;99746.00;;;;5021762;27;110804;-65
2023/04/14 01:36:58;;;;;;;2.00;1.67;;;7.60;99.90;7.50;99739.00;;;;5020224;27;88797;-65
2023/04/14 01:39:34;;;;;;;3.03;1.90;;;7.60;99.90;7.50;99748.00;;;;5023985;27;87953;-65
2023/04/14 01:42:03;;;;;;;2.30;1.60;;;7.60;99.90;7.50;99763.00;;;;5009087;27;87891;-65
2023/04/14 01:44:30;;;;;;;4.13;2.20;;;7.60;99.90;7.50;99751.00;;;;5010468;27;94684;-64
2023/04/14 01:47:01;;;;;;;2.90;1.90;;;7.60;99.90;7.50;99757.00;;;;5011095;27;88331;-65
2023/04/14 01:49:29;;;;;;;3.60;1.77;;;8.00;99.90;7.60;99772.00;;;;5024439;27;94148;-67
2023/04/14 01:51:55;;;;;;;3.23;2.43;;;7.60;99.90;7.60;99764.00;;;;5011763;27;87842;-65
2023/04/14 01:54:22;;;;;;;4.60;2.63;;;7.70;99.90;7.60;99778.00;;;;5010190;27;89502;-65
2023/04/14 01:56:51;;;;;;;2.17;1.77;;;7.60;99.90;7.60;99779.00;;;;5009539;27;118487;-66
2023/04/14 01:59:18;;;;;;;4.27;2.20;;;7.70;99.90;7.60;99769.00;;;;5011952;27;87824;-66
2023/04/14 02:01:45;;;;;;;2.77;1.70;;;7.60;99.90;7.60;99765.00;;;;5027280;27;87926;-66
2023/04/14 02:04:12;;;;;;;2.37;1.80;;;7.70;99.90;7.60;99773.00;;;;5023674;27;117254;-67
2023/04/14 02:06:39;;;;;;;1.57;1.47;;;8.10;99.90;7.60;99771.00;;;;5011479;27;88731;-67
2023/04/14 02:09:09;;;;;;;1.80;1.70;;;7.60;99.90;7.60;99779.00;;;;5027020;27;87981;-68
2023/04/14 02:11:36;;;;;;;3.07;1.63;;;7.80;99.90;7.60;99779.00;;;;5013052;27;87450;-68
2023/04/14 02:14:03;;;;;;;2.50;1.70;;;7.60;99.90;7.60;99768.00;;;;5008026;27;102912;-67
2023/04/14 02:16:29;;;;;;;1.60;1.50;;;7.70;99.90;7.60;99769.00;;;;5010704;27;88942;-68
2023/04/14 02:18:56;;;;;;;2.17;1.37;;;7.70;99.90;7.60;99765.00;;;;4995511;27;107795;-67
2023/04/14 02:21:24;;;;;;;1.80;1.70;;;7.70;99.90;7.60;99780.00;;;;4989811;27;108399;-67
2023/04/14 02:23:50;;;;;;;2.53;1.43;;;7.80;99.90;7.50;99769.00;;;;4994757;27;89001;-68
2023/04/14 02:26:21;;;;;;;4.07;1.63;;;7.60;99.90;7.50;99764.00;;;;5006655;27;117541;-68
2023/04/14 02:29:11;;;;;;;2.80;1.20;;;7.60;99.90;7.40;99759.00;;;;4999167;27;87933;-68
2023/04/14 02:31:49;;;;;;;2.33;2.17;;;7.60;99.90;7.40;99732.00;;;;4984889;27;87777;-68
2023/04/14 02:34:23;;;;;;;2.67;1.90;;;7.70;99.90;7.40;99731.00;;;;4994738;27;109834;-67
2023/04/14 02:36:56;;;;;;;1.30;1.23;;;7.60;99.90;7.40;99715.00;;;;4995887;27;88228;-67
2023/04/14 02:39:42;;;;;;;3.80;1.90;;;7.50;99.90;7.30;99722.00;;;;5010135;27;87870;-67
2023/04/14 02:42:14;;;;;;;2.47;1.63;;;7.50;99.90;7.30;99722.00;;;;5010717;27;89063;-67
2023/04/14 02:44:48;;;;;;;1.73;1.13;;;7.50;99.90;7.30;99715.00;;;;5007085;27;89364;-67
2023/04/14 02:47:34;;;;;;;1.83;1.67;;;7.50;99.90;7.30;99715.00;;;;5021362;27;92420;-67
2023/04/14 02:50:03;;;;;;;2.00;1.17;;;7.40;99.90;7.30;99711.00;;;;5019868;27;95563;-67
2023/04/14 02:52:31;;;;;;;1.93;1.57;;;7.40;99.90;7.40;99716.00;;;;5007160;27;102047;-68
2023/04/14 02:54:59;;;;;;;2.40;1.83;;;7.50;99.90;7.40;99711.00;;;;5015430;27;88088;-67
2023/04/14 02:57:25;;;;;;;3.13;1.60;;;7.40;99.90;7.40;99702.00;;;;5027384;27;91047;-68
2023/04/14 02:59:53;;;;;;;1.40;1.30;;;7.50;99.90;7.40;99717.00;;;;5025083;27;87938;-67
2023/04/14 03:02:21;;;;;;;2.27;1.60;;;7.50;99.90;7.40;99711.00;;;;5011902;27;87190;-67
2023/04/14 03:04:46;;;;;;;1.60;0.93;;;7.50;99.90;7.40;99719.00;;;;5013684;27;115347;-67
2023/04/14 03:07:15;;;;;;;3.27;1.60;;;7.50;99.90;7.40;99721.00;;;;5011274;27;92385;-67
2023/04/14 03:09:41;;;;;;;2.10;1.57;;;7.50;99.90;7.50;99713.00;;;;5010329;27;88952;-67
2023/04/14 03:12:11;;;;;;;4.20;2.17;;;8.10;99.90;7.50;99723.00;;;;5010695;27;87933;-67
2023/04/14 03:14:39;;;;;;;1.60;1.33;;;7.60;99.90;7.50;99717.00;;;;5024318;27;87798;-68
2023/04/14 03:17:06;;;;;;;2.70;1.83;;;7.60;99.90;7.60;99715.00;;;;4989106;27;94475;-67
2023/04/14 03:19:33;;;;;;;2.83;1.83;;;8.20;99.90;7.60;99719.00;;;;5007940;27;111806;-67
2023/04/14 03:21:59;;;;;;;1.47;1.37;;;7.90;99.90;7.60;99715.00;;;;5013706;27;87834;-67
2023/04/14 03:24:29;;;;;;;2.13;1.93;;;7.70;99.90;7.60;99720.00;;;;5009352;27;90886;-67
2023/04/14 03:27:04;;;;;;;4.47;2.10;;;8.20;99.90;7.60;99737.00;;;;5008222;27;87791;-67
2023/04/14 03:29:37;;;;;;;2.83;2.27;;;7.70;99.90;7.60;99738.00;;;;5010596;27;88820;-67
2023/04/14 03:32:06;;;;;;;2.73;1.70;;;7.70;99.90;7.60;99734.00;;;;4996644;27;88088;-67
2023/04/14 03:34:37;;;;;;;4.87;1.87;;;7.70;99.90;7.60;99745.00;;;;5009472;27;110566;-67
2023/04/14 03:37:04;;;;;;;4.80;1.20;;;7.80;99.90;7.70;99742.00;;;;5011394;27;89883;-67
2023/04/14 03:39:33;;;;;;;2.17;1.60;;;7.70;99.90;7.70;99734.00;;;;4993688;27;105885;-67
2023/04/14 03:42:00;;;;;;;2.63;1.47;;;7.90;99.90;7.70;99739.00;;;;5021331;27;88254;-68
2023/04/14 03:44:35;;;;;;;2.63;1.50;;;7.80;99.90;7.70;99737.00;;;;5008552;27;87569;-67
2023/04/14 03:47:02;;;;;;;2.17;1.97;;;7.80;99.90;7.70;99742.00;;;;5007219;27;88238;-69
2023/04/14 03:49:35;;;;;;;2.03;1.53;;;7.80;99.90;7.70;99744.00;;;;5010236;27;87702;-68
2023/04/14 03:52:05;;;;;;;2.00;1.80;;;7.90;99.90;7.70;99736.00;;;;5000510;27;87172;-67
2023/04/14 03:54:35;;;;;;;4.97;1.73;;;7.90;99.90;7.80;99725.00;;;;4992360;27;88836;-68
2023/04/14 03:57:05;;;;;;;3.67;1.73;;;8.00;99.90;7.80;99719.00;;;;5000693;27;88855;-68
2023/04/14 03:59:32;;;;;;;1.63;1.53;;;7.80;99.90;7.70;99713.00;;;;5006831;27;88768;-68
2023/04/14 04:02:01;;;;;;;3.17;2.60;;;7.90;99.90;7.70;99729.00;;;;5022940;27;87752;-67
2023/04/14 04:04:29;;;;;;;2.03;1.67;;;7.80;99.90;7.70;99718.00;;;;4989467;27;88945;-68
2023/04/14 04:06:55;;;;;;;4.00;1.73;;;7.80;99.90;7.70;99720.00;;;;5007013;27;89116;-67
2023/04/14 04:09:23;;;;;;;1.70;1.60;;;7.80;99.90;7.70;99714.00;;;;5005929;27;87774;-66
2023/04/14 04:11:53;;;;;;;2.93;1.90;;;7.80;99.90;7.70;99724.00;;;;5008452;27;87846;-67
2023/04/14 04:14:20;;;;;;;1.50;1.20;;;7.80;99.90;7.80;99724.00;;;;4984009;27;88443;-67
2023/04/14 04:16:50;;;;;;;1.53;1.10;;;8.00;99.90;7.80;99728.00;;;;4987269;27;93692;-68
2023/04/14 04:19:21;;;;;;;2.07;1.53;;;7.90;99.90;7.80;99734.00;;;;5019074;27;89396;-68
2023/04/14 04:21:51;;;;;;;1.67;1.50;;;7.90;99.90;7.70;99721.00;;;;5006048;27;98417;-68
2023/04/14 04:24:21;;;;;;;1.00;1.00;;;7.90;99.90;7.70;99718.00;;;;5009484;27;110135;-68
2023/04/14 04:26:47;;;;;;;2.00;1.47;;;7.90;99.90;7.70;99710.00;;;;5005118;27;105864;-68
2023/04/14 04:29:13;;;;;;;7.23;1.37;;;7.90;99.90;7.80;99704.00;;;;4986701;27;88046;-69
2023/04/14 04:31:39;;;;;;;2.70;1.57;;;7.90;99.90;7.80;99708.00;;;;5008991;27;108389;-69
2023/04/14 04:34:05;;;;;;;2.03;1.87;;;7.90;99.90;7.80;99709.00;;;;4988395;27;88629;-69
2023/04/14 04:36:32;;;;;;;2.33;1.63;;;7.90;99.90;7.80;99701.00;;;;4991375;27;88019;-69
2023/04/14 04:38:58;;;;;;;3.70;1.83;;;7.90;99.90;7.80;99705.00;;;;5021797;27;87903;-69
2023/04/14 04:41:27;;;;;;;1.73;1.40;;;8.00;99.90;7.90;99700.00;;;;5005389;27;109293;-70
2023/04/14 04:43:53;;;;;;;1.80;1.47;;;7.90;99.90;7.90;99707.00;;;;5001113;27;106904;-69
2023/04/14 04:46:41;;;;;;;1.33;1.13;;;8.00;99.90;7.90;99707.00;;;;4985820;27;107760;-69
2023/04/14 04:49:07;;;;;;;1.93;1.30;;;8.00;99.90;7.90;99706.00;;;;5020056;27;88844;-69
2023/04/14 04:51:32;;;;;;;1.50;1.40;;;8.00;99.90;8.00;99694.00;;;;5005725;27;109176;-69
2023/04/14 04:53:58;;;;;;;1.50;1.40;;;8.00;99.90;8.00;99706.00;;;;5005281;27;119054;-69
2023/04/14 04:56:25;;;;;;;2.00;1.80;;;8.10;99.90;8.00;99711.00;;;;5001002;27;117532;-68
2023/04/14 04:58:50;;;;;;;2.97;1.53;;;8.10;99.90;8.00;99709.00;;;;5004402;27;88753;-69
2023/04/14 05:01:18;;;;;;;3.90;1.90;;;8.10;99.90;8.10;99715.00;;;;5004366;27;108055;-69
2023/04/14 05:03:44;;;;;;;2.10;1.53;;;8.20;99.90;8.10;99712.00;;;;5004285;27;88752;-69
2023/04/14 05:06:11;;;;;;;1.80;1.70;;;8.20;99.90;8.10;99719.00;;;;5007778;27;87663;-68
2023/04/14 05:08:37;;;;;;;2.27;1.87;;;8.20;99.90;8.10;99715.00;;;;5008692;27;88004;-69
2023/04/14 05:11:03;;;;;;;3.07;1.73;;;8.20;99.90;8.20;99717.00;;;;5001786;27;93237;-69
2023/04/14 05:13:28;;;;;;;2.17;1.83;;;8.20;99.90;8.20;99722.00;;;;5016956;27;104749;-69
2023/04/14 05:16:05;;;;;;;2.90;1.60;;;8.20;99.90;8.30;99718.00;;;;5001435;27;119559;-68
2023/04/14 05:18:32;;;;;;;3.17;1.63;;;8.30;99.90;8.30;99718.00;;;;5005182;27;89297;-69
2023/04/14 05:21:05;;;;;;;1.87;1.67;;;8.30;99.90;8.30;99726.00;;;;5002260;27;101636;-69
2023/04/14 05:23:33;;;;;;;2.30;1.87;;;8.40;99.90;8.40;99722.00;;;;5004696;27;88718;-68
2023/04/14 05:25:59;;;;;;;2.23;1.30;;;8.40;99.90;8.40;99730.00;;;;5003270;27;87919;-67
2023/04/14 05:28:25;;;;;;;2.07;1.77;;;8.50;99.90;8.40;99733.00;;;;5001560;27;91064;-67
2023/04/14 05:30:51;;;;;;;5.20;2.10;;;8.50;99.90;8.40;99728.00;;;;5003236;27;87030;-67
2023/04/14 05:33:18;;;;;;;1.63;1.53;;;8.50;99.90;8.40;99728.00;;;;5001613;27;107995;-66
2023/04/14 05:35:44;;;;;;;1.53;1.43;;;8.40;99.90;8.30;99727.00;;;;5003192;27;88313;-66
2023/04/14 05:38:10;;;;;;;2.73;1.57;;;8.40;99.90;8.30;99723.00;;;;5003038;27;88815;-66
2023/04/14 05:40:36;;;;;;;1.27;1.17;;;8.40;99.90;8.20;99735.00;;;;5002161;27;89591;-66
2023/04/14 05:43:02;;;;;;;2.00;1.53;;;8.40;99.90;8.20;99724.00;;;;4988272;27;118600;-65
2023/04/14 05:45:28;;;;;;;2.03;1.80;;;8.40;99.90;8.30;99748.00;;;;4993671;27;117636;-66
2023/04/14 05:47:54;;;;;;;3.23;1.40;;;8.40;99.90;8.30;99743.00;;;;5000595;27;110508;-67
2023/04/14 05:50:21;;;;;;;2.30;1.43;;;8.40;99.90;8.30;99748.00;;;;5003837;27;88638;-66
2023/04/14 05:52:47;;;;;;;3.70;1.53;;;8.40;99.90;8.30;99757.00;;;;5004328;27;88369;-68
2023/04/14 05:55:13;;;;;;;2.47;1.23;;;8.40;99.90;8.30;99765.00;;;;5001724;27;107542;-69
2023/04/14 05:57:39;;;;;;;3.73;1.70;;;8.40;99.90;8.40;99766.00;;;;5002051;27;110812;-68
2023/04/14 06:00:06;;;;;;;1.73;1.63;;;8.20;99.90;8.40;99768.00;;;;4986173;27;109277;-67
2023/04/14 06:02:32;;;;;;;2.77;1.37;;;8.50;99.90;8.40;99764.00;;;;4999471;27;112276;-68
2023/04/14 06:05:01;;;;;;;2.17;1.70;;;8.50;99.90;8.30;99773.00;;;;5003687;27;116564;-69
2023/04/14 06:07:27;;;;;;;1.63;1.50;;;8.40;99.90;8.30;99769.00;;;;5003120;27;87936;-69
2023/04/14 06:09:53;;;;;;;2.10;1.83;;;8.50;99.90;8.40;99778.00;;;;5003977;27;88050;-67
2023/04/14 06:12:19;;;;;;;1.70;1.50;;;8.40;99.90;8.40;99779.00;;;;5002851;27;117166;-67
2023/04/14 06:14:45;;;;;;;2.10;1.90;;;8.40;99.90;8.40;99778.00;;;;5004341;27;88989;-65
2023/04/14 06:17:11;;;;;;;2.57;2.37;;;8.50;99.90;8.40;99762.00;;;;5004684;27;89057;-67
2023/04/14 06:19:36;;;;;;;2.97;1.43;;;8.50;99.90;8.40;99757.00;;;;5003468;27;109218;-65
2023/04/14 06:22:02;;;;;;;4.53;2.30;;;8.50;99.90;8.50;99759.00;;;;4999030;27;92391;-68
2023/04/14 06:24:28;;;;;;;1.70;1.47;;;8.60;99.90;8.50;99754.00;;;;5004189;27;87895;-66
2023/04/14 06:26:53;;;;;;;1.87;1.57;;;8.60;99.90;8.50;99758.00;;;;5003103;27;111145;-65
2023/04/14 06:29:19;;;;;;;2.77;1.90;;;8.60;99.90;8.50;99752.00;;;;5002752;27;110181;-68
2023/04/14 06:31:45;;;;;;;1.40;1.30;;;8.60;99.90;8.50;99747.00;;;;5003637;27;118774;-67
2023/04/14 06:34:11;;;;;;;3.30;2.10;;;8.60;99.90;8.50;99756.00;;;;5002926;27;88803;-66
2023/04/14 06:36:36;;;;;;;1.67;1.23;;;8.60;99.90;8.50;99749.00;;;;5011976;27;87974;-66
2023/04/14 06:39:03;;;;;;;1.30;1.20;;;8.60;99.90;8.50;99752.00;;;;5003221;27;87893;-66
2023/04/14 06:41:29;;;;;;;4.17;1.67;;;8.80;99.90;8.50;99749.00;;;;5008454;27;88903;-65
2023/04/14 06:43:55;;;;;;;3.27;2.50;;;8.60;99.90;8.50;99745.00;;;;5008247;27;89338;-64
2023/04/14 06:46:20;;;;;;;2.50;1.70;;;8.60;99.90;8.50;99743.00;;;;5006655;27;87993;-64
2023/04/14 06:48:46;;;;;;;2.37;1.67;;;8.60;99.90;8.50;99741.00;;;;5005361;27;108644;-65
2023/04/14 06:51:12;;;;;;;5.53;2.13;;;8.60;99.90;8.50;99738.00;;;;5006492;27;112072;-65
2023/04/14 06:53:38;;;;;;;1.80;1.50;;;8.50;99.90;8.50;99749.00;;;;5011809;27;88016;-64
2023/04/14 06:56:06;;;;;;;1.83;1.33;;;8.50;99.90;8.50;99748.00;;;;5010714;27;110478;-64
2023/04/14 06:58:32;;;;;;;2.87;2.30;;;8.60;99.90;8.60;99747.00;;;;5006671;27;88112;-65
2023/04/14 07:01:00;;;;;;;3.80;2.20;;;8.60;99.90;8.70;99741.00;;;;5008966;27;88199;-65
2023/04/14 07:03:28;;;;;;;2.07;1.67;;;8.70;99.90;8.70;99740.00;;;;5008196;27;87893;-65
2023/04/14 07:05:53;;;;;;;2.50;1.50;;;9.20;99.90;8.70;99740.00;;;;5008560;27;88269;-64
2023/04/14 07:08:20;;;;;;;4.60;2.30;;;8.60;99.90;8.80;99725.00;;;;5005967;27;87168;-65
2023/04/14 07:10:46;;;;;;;1.43;1.33;;;8.90;99.90;8.90;99726.00;;;;5006969;27;105572;-65
2023/04/14 07:13:12;;;;;;;2.70;2.30;;;8.90;99.90;9.00;99723.00;;;;5006769;27;96952;-66
2023/04/14 07:15:38;;;;;;;5.40;1.77;;;9.00;99.90;9.10;99724.00;;;;5011361;27;91045;-66
2023/04/14 07:18:04;;;;;;;2.27;1.23;;;9.10;99.90;9.10;99708.00;;;;5004921;27;87917;-65
2023/04/14 07:20:31;;;;;;;1.60;1.47;;;9.10;99.90;9.10;99714.00;;;;5009166;27;107798;-65
2023/04/14 07:22:57;;;;;;;2.10;1.53;;;9.20;99.90;9.10;99709.00;;;;5003232;27;116980;-65
2023/04/14 07:25:23;;;;;;;1.70;1.33;;;9.20;99.90;9.10;99707.00;;;;5007734;27;87888;-66
2023/04/14 07:27:48;;;;;;;3.20;1.80;;;9.20;99.90;9.10;99706.00;;;;5007793;27;108488;-66
2023/04/14 07:30:14;;;;;;;2.03;1.37;;;9.20;99.90;9.20;99712.00;;;;5005243;27;116838;-65
2023/04/14 07:32:39;;;;;;;4.57;1.90;;;9.20;99.90;9.20;99712.00;;;;5008311;27;117124;-65
2023/04/14 07:35:09;;;;;;;2.80;1.57;;;9.30;99.90;9.20;99711.00;;;;5006503;27;111631;-65
2023/04/14 07:37:38;;;;;;;1.57;1.47;;;9.30;99.90;9.30;99716.00;;;;5006722;27;88217;-65
2023/04/14 07:40:04;;;;;;;1.50;1.00;;;9.30;99.90;9.30;99712.00;;;;5003985;27;89129;-65
2023/04/14 07:42:30;;;;;;;2.10;1.20;;;9.30;99.90;9.30;99722.00;;;;5003543;27;108522;-65
2023/04/14 07:44:55;;;;;;;0.77;0.77;;;9.30;99.90;9.20;99714.00;;;;5004519;27;87789;-65
2023/04/14 07:47:21;;;;;;;4.77;1.33;;;9.30;99.90;9.20;99722.00;;;;5003140;27;107391;-64
2023/04/14 07:49:47;;;;;;;1.33;1.00;;;9.20;99.90;9.20;99720.00;;;;5002821;27;118283;-65
2023/04/14 07:52:13;;;;;;;2.57;1.40;;;9.20;99.90;9.10;99720.00;;;;5009378;27;88495;-64
2023/04/14 07:54:38;;;;;;;1.70;1.30;;;9.20;99.90;9.10;99711.00;;;;5005257;27;97838;-65
2023/04/14 07:57:04;;;;;;;1.73;1.50;;;9.10;99.90;9.10;99713.00;;;;5006309;27;87297;-65
2023/04/14 07:59:30;;;;;;;1.43;1.13;;;9.10;99.90;9.00;99709.00;;;;5004696;27;91176;-64
2023/04/14 08:01:56;;;;;;;1.30;0.90;;;9.10;99.90;9.10;99708.00;;;;5006360;27;89025;-65
2023/04/14 08:04:22;;;;;;;2.77;1.67;;;9.10;99.90;9.10;99712.00;;;;5001099;27;110430;-65
2023/04/14 08:06:47;;;;;;;1.70;1.37;;;9.10;99.90;9.10;99700.00;;;;5007002;27;108161;-64
2023/04/14 08:09:13;;;;;;;0.83;0.83;;;9.10;99.90;9.10;99707.00;;;;5005117;27;118205;-65
2023/04/14 08:11:39;;;;;;;3.53;2.00;;;9.20;99.90;9.10;99710.00;;;;5006580;27;88705;-65
2023/04/14 08:14:05;;;;;;;1.90;1.50;;;9.10;99.90;9.00;99702.00;;;;5005007;27;87693;-66
2023/04/14 08:16:35;;;;;;;2.73;1.30;;;9.10;99.90;9.00;99706.00;;;;5004147;27;108674;-64
2023/04/14 08:19:02;;;;;;;2.17;1.93;;;9.10;99.90;8.90;99706.00;;;;5002737;27;88723;-63
2023/04/14 08:21:27;;;;;;;6.20;2.03;;;9.00;99.90;8.90;99703.00;;;;4995380;27;101256;-63
2023/04/14 08:23:53;;;;;;;1.60;1.50;;;9.00;99.90;8.90;99705.00;;;;5004172;27;111146;-63
2023/04/14 08:26:18;;;;;;;1.83;1.70;;;9.00;99.90;8.90;99701.00;;;;5002451;27;108159;-62
2023/04/14 08:28:45;;;;;;;2.30;1.40;;;9.00;99.90;8.90;99700.00;;;;5005751;27;90223;-63
2023/04/14 08:31:11;;;;;;;1.87;1.27;;;9.00;99.90;8.90;99698.00;;;;5004231;27;88975;-62
2023/04/14 08:33:37;;;;;;;4.73;2.17;;;9.00;99.90;8.90;99703.00;;;;5004250;27;109946;-63
2023/04/14 08:36:03;;;;;;;1.20;1.10;;;9.00;99.90;8.90;99698.00;;;;5008496;27;109304;-64
2023/04/14 08:38:28;;;;;;;2.00;1.53;;;9.00;99.90;8.90;99688.00;;;;5004160;27;89135;-64
2023/04/14 08:40:55;;;;;;;1.23;1.10;;;9.00;99.90;8.90;99704.00;;;;5003082;27;116057;-66
2023/04/14 08:43:21;;;;;;;2.30;1.23;;;9.00;99.90;9.00;99685.00;;;;5015397;27;87686;-65
2023/04/14 08:45:52;;;;;;;3.23;2.00;;;9.00;99.90;9.00;99688.00;;;;5004025;27;100878;-66
2023/04/14 08:48:19;;;;;;;3.57;1.77;;;9.00;99.90;9.00;99689.00;;;;5003575;27;89044;-63
2023/04/14 08:51:17;;;;;;;1.47;1.30;;;9.10;99.90;9.00;99683.00;;;;5006803;27;88515;-64
2023/04/14 08:53:47;;;;;;;1.57;1.30;;;9.10;99.90;9.00;99682.00;;;;5002510;27;88836;-65
2023/04/14 08:56:16;;;;;;;2.13;1.37;;;9.00;99.90;9.00;99679.00;;;;5003982;27;99327;-64
2023/04/14 08:58:42;;;;;;;2.67;1.47;;;9.00;99.90;9.00;99674.00;;;;5017643;27;88299;-64
2023/04/14 09:01:08;;;;;;;1.53;1.33;;;9.10;99.90;9.00;99671.00;;;;5004027;27;87791;-63
2023/04/14 09:03:36;;;;;;;2.03;1.77;;;9.10;99.90;8.90;99679.00;;;;5005081;27;103429;-65
2023/04/14 09:06:02;;;;;;;1.80;1.57;;;9.00;99.90;8.90;99684.00;;;;5005869;27;89634;-65
2023/04/14 09:08:32;;;;;;;3.77;1.30;;;9.00;99.90;8.90;99674.00;;;;5003651;27;88608;-65
2023/04/14 09:11:03;;;;;;;2.87;1.40;;;9.00;99.90;8.80;99679.00;;;;5004161;27;88946;-64
2023/04/14 09:13:29;;;;;;;1.80;1.70;;;8.90;99.90;8.80;99675.00;;;;5005205;27;87882;-63
2023/04/14 09:15:56;;;;;;;1.57;1.23;;;8.90;99.90;8.80;99674.00;;;;5019829;27;88604;-63
2023/04/14 09:18:22;;;;;;;2.40;1.73;;;8.90;99.90;8.70;99676.00;;;;5017027;27;89152;-63
2023/04/14 09:20:48;;;;;;;4.20;1.63;;;8.80;99.90;8.70;99681.00;;;;5005913;27;104218;-62
2023/04/14 09:23:14;;;;;;;1.43;1.33;;;8.80;99.90;8.70;99673.00;;;;5004740;27;110589;-64
2023/04/14 09:25:41;;;;;;;2.57;2.00;;;8.80;99.90;8.70;99668.00;;;;5002030;27;109768;-64
2023/04/14 09:28:07;;;;;;;3.07;1.90;;;8.70;99.90;8.70;99668.00;;;;5002117;27;88986;-64
2023/04/14 09:30:33;;;;;;;1.60;1.50;;;8.70;99.90;8.70;99661.00;;;;5006170;27;87900;-64
2023/04/14 09:33:06;;;;;;;2.23;2.03;;;9.10;99.90;8.70;99665.00;;;;5004674;27;110980;-63
2023/04/14 09:35:50;;;;;;;3.80;2.37;;;8.80;99.90;8.70;99663.00;;;;5007680;27;86786;-63
2023/04/14 09:38:38;;;;;;;2.00;1.60;;;8.80;99.90;8.70;99666.00;;;;5000899;27;88953;-63
2023/04/14 09:41:08;;;;;;;4.73;1.67;;;8.70;99.90;8.60;99671.00;;;;5005768;27;88248;-63
2023/04/14 09:43:35;;;;;;;1.83;1.73;;;8.70;99.90;8.60;99670.00;;;;5017286;27;88571;-64
2023/04/14 09:46:07;;;;;;;1.13;1.03;;;8.60;99.90;8.60;99673.00;;;;4994191;27;88462;-63
2023/04/14 09:48:33;;;;;;;2.93;1.63;;;8.70;99.90;8.60;99668.00;;;;5000802;27;88713;-64
2023/04/14 09:51:04;;;;;;;2.20;1.83;;;8.60;99.90;8.60;99669.00;;;;4992126;27;88572;-65
2023/04/14 09:53:38;;;;;;;2.07;1.63;;;8.70;99.90;8.60;99660.00;;;;5005403;27;88287;-64
2023/04/14 09:56:10;;;;;;;2.13;1.50;;;8.60;99.90;8.60;99656.00;;;;5018934;27;87877;-64
2023/04/14 09:58:40;;;;;;;1.43;1.23;;;8.70;99.90;8.60;99660.00;;;;5002603;27;88351;-64
2023/04/14 10:01:17;;;;;;;4.43;2.03;;;8.60;99.90;8.60;99664.00;;;;5007185;27;88555;-63
2023/04/14 10:03:48;;;;;;;2.53;1.83;;;8.70;99.90;8.60;99659.00;;;;5008995;27;88009;-65
2023/04/14 10:06:19;;;;;;;7.00;2.30;;;8.70;99.90;8.60;99663.00;;;;4995460;27;100931;-64
2023/04/14 10:08:50;;;;;;;2.63;1.93;;;8.70;99.90;8.60;99660.00;;;;5019831;27;89009;-65
2023/04/14 10:11:19;;;;;;;2.97;2.07;;;8.70;99.90;8.60;99657.00;;;;4982404;27;88548;-63
2023/04/14 10:13:48;;;;;;;1.33;1.00;;;8.70;99.90;8.60;99660.00;;;;4999564;27;87890;-64
2023/04/14 10:16:14;;;;;;;2.17;1.40;;;8.70;99.90;8.60;99659.00;;;;5005963;27;88022;-63
2023/04/14 10:18:40;;;;;;;4.83;2.73;;;8.70;99.90;8.60;99659.00;;;;5007051;27;88197;-64
2023/04/14 10:21:08;;;;;;;3.27;1.87;;;8.70;99.90;8.60;99662.00;;;;5005976;27;88479;-62
2023/04/14 10:23:38;;;;;;;2.63;1.33;;;8.70;99.90;8.60;99671.00;;;;4994813;27;102076;-63
2023/04/14 10:26:09;;;;;;;2.97;1.93;;;8.70;99.90;8.60;99659.00;;;;5007855;27;89255;-63
2023/04/14 10:28:37;;;;;;;2.60;2.20;;;8.70;99.90;8.60;99656.00;;;;4990110;27;88610;-64
2023/04/14 10:31:07;;;;;;;2.87;1.40;;;8.60;99.90;8.60;99655.00;;;;5022157;27;102886;-64
2023/04/14 10:33:36;;;;;;;1.87;1.50;;;8.60;99.90;8.60;99655.00;;;;5005115;27;88739;-63
2023/04/14 10:36:02;;;;;;;6.17;2.07;;;8.60;99.90;8.60;99651.00;;;;5004647;27;87837;-63
2023/04/14 10:38:42;;;;;;;2.00;1.43;;;8.60;99.90;8.60;99659.00;;;;5003440;27;105796;-64
2023/04/14 10:41:10;;;;;;;4.97;2.10;;;8.60;99.90;8.60;99647.00;;;;5005504;27;87982;-63
2023/04/14 10:43:37;;;;;;;3.10;1.37;;;8.70;99.90;8.60;99650.00;;;;5003620;27;89612;-63
2023/04/14 10:46:04;;;;;;;3.50;2.03;;;8.70;99.90;8.70;99655.00;;;;5004355;27;87851;-64
2023/04/14 10:48:37;;;;;;;3.47;2.83;;;8.70;99.90;8.60;99651.00;;;;4997851;27;88585;-63
2023/04/14 10:51:05;;;;;;;2.07;1.70;;;8.70;99.90;8.70;99646.00;;;;5021019;27;88996;-63
2023/04/14 10:53:47;;;;;;;1.63;1.50;;;8.70;99.90;8.70;99647.00;;;;5017623;27;87767;-64
2023/04/14 10:56:13;;;;;;;2.40;1.30;;;8.70;99.90;8.70;99638.00;;;;4994103;27;87966;-64
2023/04/14 10:58:39;;;;;;;2.47;1.17;;;8.80;99.90;8.70;99648.00;;;;5003508;27;118922;-64
2023/04/14 11:01:29;;;;;;;1.13;0.97;;;8.80;99.90;8.80;99644.00;;;;5004551;27;117095;-64
2023/04/14 11:03:55;;;;;;;4.20;1.47;;;8.90;99.90;8.90;99641.00;;;;5021126;27;88502;-64
2023/04/14 11:06:46;;;;;;;38.77;22.10;;;8.90;99.90;8.90;99638.00;;;;5000710;27;87947;-66
2023/04/14 11:09:28;;;;;;;6.27;3.40;;;9.00;99.90;9.00;99630.00;;;;5005596;27;88896;-66
2023/04/14 11:11:57;;;;;;;2.03;1.90;;;9.00;99.90;9.00;99629.00;;;;5010114;27;87826;-64
2023/04/14 11:14:29;;;;;;;4.17;1.63;;;10.40;99.90;9.10;99633.00;;;;5005716;27;87600;-65